createdAt,value
2016-10-09T00:01:08.332Z,0
2016-10-09T00:02:18.861Z,0
2016-10-09T00:03:29.359Z,0
2016-10-09T00:04:39.841Z,0
2016-10-09T00:05:50.760Z,0
2016-10-09T00:07:01.236Z,0
2016-10-09T00:08:11.877Z,0
2016-10-09T00:09:22.390Z,0
2016-10-09T00:10:32.867Z,0
2016-10-09T00:11:43.413Z,0
2016-10-09T00:12:53.880Z,0
2016-10-09T00:14:04.513Z,0
2016-10-09T00:15:15.045Z,0
2016-10-09T00:16:25.563Z,0
2016-10-09T00:17:36.066Z,0
2016-10-09T00:18:46.614Z,0
2016-10-09T00:19:57.632Z,0
2016-10-09T00:21:08.104Z,0
2016-10-09T00:22:18.607Z,0
2016-10-09T00:23:29.132Z,0
2016-10-09T00:24:40.121Z,0
2016-10-09T00:25:51.592Z,0
2016-10-09T00:27:02.073Z,0
2016-10-09T00:28:13.063Z,0
2016-10-09T00:29:23.928Z,0
2016-10-09T00:30:34.462Z,0
2016-10-09T00:31:45.456Z,0
2016-10-09T00:32:55.934Z,0
2016-10-09T00:34:06.431Z,0
2016-10-09T00:35:17.019Z,0
2016-10-09T00:36:27.496Z,0
2016-10-09T00:37:38.107Z,0
2016-10-09T00:38:48.584Z,0
2016-10-09T00:39:59.091Z,0
2016-10-09T00:41:09.593Z,0
2016-10-09T00:42:20.107Z,0
2016-10-09T00:43:30.575Z,0
2016-10-09T00:44:41.101Z,0
2016-10-09T00:45:51.589Z,0
2016-10-09T00:47:02.104Z,0
2016-10-09T00:48:12.616Z,0
2016-10-09T00:49:23.215Z,0
2016-10-09T00:50:33.685Z,0
2016-10-09T00:51:44.173Z,0
2016-10-09T00:52:55.041Z,0
2016-10-09T00:54:05.544Z,0
2016-10-09T00:55:16.260Z,0
2016-10-09T00:56:26.798Z,0
2016-10-09T00:57:37.329Z,0
2016-10-09T00:58:47.824Z,0
2016-10-09T00:59:58.337Z,0
2016-10-09T01:01:08.953Z,0
2016-10-09T01:02:19.838Z,0
2016-10-09T01:03:30.329Z,0
2016-10-09T01:04:40.824Z,0
2016-10-09T01:05:51.310Z,0
2016-10-09T01:07:02.378Z,0
2016-10-09T01:08:12.839Z,0
2016-10-09T01:09:23.834Z,0
2016-10-09T01:10:34.335Z,0
2016-10-09T01:11:44.868Z,0
2016-10-09T01:12:55.386Z,0
2016-10-09T01:14:05.899Z,0
2016-10-09T01:15:16.387Z,0
2016-10-09T01:16:26.859Z,0
2016-10-09T01:17:37.377Z,0
2016-10-09T01:18:47.967Z,0
2016-10-09T01:19:58.430Z,0
2016-10-09T01:21:08.892Z,0
2016-10-09T01:22:19.357Z,0
2016-10-09T01:23:29.807Z,0
2016-10-09T01:24:40.364Z,0
2016-10-09T01:25:50.828Z,0
2016-10-09T01:27:01.294Z,0
2016-10-09T01:28:11.747Z,0
2016-10-09T01:29:22.588Z,0
2016-10-09T01:30:33.158Z,0
2016-10-09T01:31:43.635Z,0
2016-10-09T01:32:54.097Z,0
2016-10-09T01:34:04.550Z,0
2016-10-09T01:35:15.002Z,0
2016-10-09T01:36:25.464Z,0
2016-10-09T01:37:35.937Z,0
2016-10-09T01:38:46.403Z,0
2016-10-09T01:39:56.868Z,0
2016-10-09T01:41:07.318Z,0
2016-10-09T01:42:17.871Z,0
2016-10-09T01:43:28.710Z,0
2016-10-09T01:44:39.559Z,0
2016-10-09T01:45:50.022Z,0
2016-10-09T01:47:00.482Z,0
2016-10-09T01:48:11.050Z,0
2016-10-09T01:49:23.209Z,0
2016-10-09T01:50:33.658Z,0
2016-10-09T01:51:44.108Z,0
2016-10-09T01:53:07.486Z,0
2016-10-09T01:54:17.996Z,0
2016-10-09T01:55:28.510Z,0
2016-10-09T01:56:38.997Z,0
2016-10-09T01:57:49.482Z,0
2016-10-09T01:59:00.007Z,0
2016-10-09T02:00:10.497Z,0
2016-10-09T02:01:21.010Z,0
2016-10-09T02:02:31.551Z,0
2016-10-09T02:03:42.051Z,0
2016-10-09T02:04:52.669Z,0
2016-10-09T02:06:03.146Z,0
2016-10-09T02:07:13.641Z,0
2016-10-09T02:08:24.146Z,0
2016-10-09T02:09:34.636Z,0
2016-10-09T02:10:45.234Z,0
2016-10-09T02:11:55.702Z,0
2016-10-09T02:13:06.212Z,0
2016-10-09T02:14:16.766Z,0
2016-10-09T02:15:28.108Z,0
2016-10-09T02:16:38.759Z,0
2016-10-09T02:17:49.235Z,0
2016-10-09T02:18:59.708Z,0
2016-10-09T02:20:10.191Z,0
2016-10-09T02:21:21.165Z,0
2016-10-09T02:22:31.637Z,0
2016-10-09T02:23:42.120Z,0
2016-10-09T02:24:52.646Z,0
2016-10-09T02:26:03.195Z,0
2016-10-09T02:27:13.657Z,0
2016-10-09T02:28:24.626Z,0
2016-10-09T02:29:35.141Z,0
2016-10-09T02:30:45.635Z,0
2016-10-09T02:31:56.144Z,0
2016-10-09T02:33:19.469Z,0
2016-10-09T02:34:30.453Z,0
2016-10-09T02:35:40.949Z,0
2016-10-09T02:36:51.455Z,0
2016-10-09T02:38:01.993Z,0
2016-10-09T02:39:13.083Z,0
2016-10-09T02:40:23.938Z,0
2016-10-09T02:41:34.813Z,0
2016-10-09T02:42:45.281Z,0
2016-10-09T02:43:55.790Z,0
2016-10-09T02:45:06.268Z,0
2016-10-09T02:46:17.126Z,0
2016-10-09T02:47:27.663Z,0
2016-10-09T02:48:38.135Z,0
2016-10-09T02:49:48.641Z,0
2016-10-09T02:50:59.247Z,0
2016-10-09T02:52:09.730Z,0
2016-10-09T02:53:20.241Z,0
2016-10-09T02:54:30.720Z,0
2016-10-09T02:55:41.239Z,0
2016-10-09T02:56:52.137Z,0
2016-10-09T02:58:03.067Z,0
2016-10-09T02:59:13.578Z,0
2016-10-09T03:00:24.065Z,0
2016-10-09T03:01:35.083Z,0
2016-10-09T03:02:45.692Z,0
2016-10-09T03:03:56.173Z,0
2016-10-09T03:05:06.648Z,0
2016-10-09T03:06:17.196Z,0
2016-10-09T03:07:27.657Z,0
2016-10-09T03:08:38.358Z,0
2016-10-09T03:09:48.828Z,0
2016-10-09T03:10:59.306Z,0
2016-10-09T03:12:09.799Z,0
2016-10-09T03:13:20.328Z,0
2016-10-09T03:14:30.862Z,0
2016-10-09T03:15:41.903Z,0
2016-10-09T03:16:52.380Z,0
2016-10-09T03:18:03.387Z,0
2016-10-09T03:19:13.905Z,0
2016-10-09T03:20:24.498Z,0
2016-10-09T03:21:35.010Z,0
2016-10-09T03:22:45.492Z,0
2016-10-09T03:23:55.975Z,0
2016-10-09T03:25:06.871Z,0
2016-10-09T03:26:17.437Z,0
2016-10-09T03:27:28.331Z,0
2016-10-09T03:28:38.823Z,0
2016-10-09T03:29:49.774Z,0
2016-10-09T03:31:00.246Z,0
2016-10-09T03:32:10.842Z,0
2016-10-09T03:33:21.355Z,0
2016-10-09T03:34:31.876Z,0
2016-10-09T03:35:42.389Z,0
2016-10-09T03:36:52.917Z,0
2016-10-09T03:38:03.403Z,0
2016-10-09T03:39:14.350Z,0
2016-10-09T03:40:24.826Z,0
2016-10-09T03:41:35.346Z,0
2016-10-09T03:42:45.860Z,0
2016-10-09T03:43:57.423Z,0
2016-10-09T03:45:07.916Z,0
2016-10-09T03:46:18.409Z,0
2016-10-09T03:47:28.935Z,0
2016-10-09T03:48:39.456Z,0
2016-10-09T03:49:50.087Z,0
2016-10-09T03:51:00.589Z,0
2016-10-09T03:52:11.087Z,0
2016-10-09T03:53:22.131Z,0
2016-10-09T03:54:32.577Z,0
2016-10-09T03:55:43.155Z,0
2016-10-09T03:56:53.661Z,0
2016-10-09T03:58:04.631Z,0
2016-10-09T03:59:15.182Z,0
2016-10-09T04:00:25.723Z,0
2016-10-09T04:01:36.200Z,0
2016-10-09T04:02:46.668Z,0
2016-10-09T04:03:57.210Z,0
2016-10-09T04:05:07.670Z,0
2016-10-09T04:06:18.135Z,0
2016-10-09T04:07:29.229Z,0
2016-10-09T04:08:39.720Z,0
2016-10-09T04:09:50.193Z,0
2016-10-09T04:11:00.697Z,0
2016-10-09T04:12:11.700Z,0
2016-10-09T04:13:22.313Z,0
2016-10-09T04:14:32.846Z,0
2016-10-09T04:15:43.729Z,0
2016-10-09T04:16:54.238Z,0
2016-10-09T04:18:05.247Z,0
2016-10-09T04:19:15.835Z,0
2016-10-09T04:20:26.320Z,0
2016-10-09T04:21:36.809Z,0
2016-10-09T04:22:47.778Z,0
2016-10-09T04:23:58.296Z,0
2016-10-09T04:25:08.802Z,0
2016-10-09T04:26:19.315Z,0
2016-10-09T04:27:29.852Z,0
2016-10-09T04:28:40.857Z,0
2016-10-09T04:29:51.861Z,0
2016-10-09T04:31:02.465Z,0
2016-10-09T04:32:13.485Z,0
2016-10-09T04:33:24.029Z,0
2016-10-09T04:34:34.532Z,0
2016-10-09T04:35:44.998Z,0
2016-10-09T04:36:55.580Z,0
2016-10-09T04:38:06.109Z,0
2016-10-09T04:39:17.056Z,0
2016-10-09T04:40:27.594Z,0
2016-10-09T04:41:38.148Z,0
2016-10-09T04:42:48.750Z,0
2016-10-09T04:43:59.279Z,0
2016-10-09T04:45:09.831Z,0
2016-10-09T04:46:20.377Z,0
2016-10-09T04:47:30.910Z,0
2016-10-09T04:48:41.431Z,0
2016-10-09T04:49:51.956Z,0
2016-10-09T04:51:02.457Z,0
2016-10-09T04:52:13.012Z,0
2016-10-09T04:53:23.542Z,0
2016-10-09T04:54:34.076Z,0
2016-10-09T04:55:44.676Z,0
2016-10-09T04:56:55.227Z,0
2016-10-09T04:58:05.751Z,0
2016-10-09T04:59:16.304Z,0
2016-10-09T05:00:26.955Z,0
2016-10-09T05:01:37.474Z,0
2016-10-09T05:03:00.861Z,0
2016-10-09T05:04:11.422Z,0
2016-10-09T05:05:23.593Z,0
2016-10-09T05:06:34.176Z,0
2016-10-09T05:07:44.711Z,0
2016-10-09T05:08:55.278Z,0
2016-10-09T05:10:05.820Z,0
2016-10-09T05:11:16.367Z,0
2016-10-09T05:12:26.855Z,0
2016-10-09T05:13:37.386Z,0
2016-10-09T05:14:47.903Z,0
2016-10-09T05:15:58.429Z,0
2016-10-09T05:17:09.134Z,0
2016-10-09T05:18:19.712Z,0
2016-10-09T05:19:30.282Z,0
2016-10-09T05:20:40.803Z,0
2016-10-09T05:21:51.312Z,0
2016-10-09T05:23:01.971Z,0
2016-10-09T05:24:12.519Z,0
2016-10-09T05:25:23.052Z,0
2016-10-09T05:26:33.549Z,0
2016-10-09T05:27:44.105Z,0
2016-10-09T05:28:54.768Z,0
2016-10-09T05:30:05.286Z,0
2016-10-09T05:31:15.809Z,0
2016-10-09T05:32:26.400Z,0
2016-10-09T05:33:36.949Z,0
2016-10-09T05:34:47.904Z,0
2016-10-09T05:35:58.439Z,0
2016-10-09T05:37:08.917Z,0
2016-10-09T05:38:19.433Z,0
2016-10-09T05:39:30.364Z,0
2016-10-09T05:40:41.004Z,0
2016-10-09T05:41:51.484Z,0
2016-10-09T05:43:02.057Z,0
2016-10-09T05:44:12.611Z,0
2016-10-09T05:45:23.168Z,0
2016-10-09T05:46:33.715Z,0
2016-10-09T05:47:44.264Z,0
2016-10-09T05:48:54.814Z,0
2016-10-09T05:50:05.354Z,0
2016-10-09T05:51:16.240Z,0
2016-10-09T05:52:27.706Z,0
2016-10-09T05:53:38.243Z,0
2016-10-09T05:54:48.792Z,0
2016-10-09T05:55:59.367Z,0
2016-10-09T05:57:09.892Z,0
2016-10-09T05:58:20.584Z,0
2016-10-09T05:59:31.108Z,0
2016-10-09T06:00:41.625Z,0
2016-10-09T06:01:52.140Z,0
2016-10-09T06:03:03.216Z,0
2016-10-09T06:04:14.324Z,0
2016-10-09T06:05:24.878Z,0
2016-10-09T06:06:35.377Z,0
2016-10-09T06:07:45.919Z,0
2016-10-09T06:08:56.472Z,0
2016-10-09T06:10:07.010Z,0
2016-10-09T06:11:17.549Z,0
2016-10-09T06:12:28.097Z,0
2016-10-09T06:13:38.629Z,0
2016-10-09T06:14:49.174Z,0
2016-10-09T06:15:59.765Z,0
2016-10-09T06:17:10.337Z,0
2016-10-09T06:18:20.886Z,0
2016-10-09T06:19:31.452Z,0
2016-10-09T06:20:41.968Z,0
2016-10-09T06:21:52.579Z,0
2016-10-09T06:23:03.493Z,0
2016-10-09T06:24:14.023Z,0
2016-10-09T06:25:24.991Z,0
2016-10-09T06:26:35.446Z,0
2016-10-09T06:27:46.072Z,0
2016-10-09T06:28:56.543Z,0
2016-10-09T06:30:07.009Z,0
2016-10-09T06:31:17.493Z,0
2016-10-09T06:32:27.975Z,0
2016-10-09T06:33:38.539Z,0
2016-10-09T06:34:49.058Z,0
2016-10-09T06:35:59.599Z,0
2016-10-09T06:37:10.539Z,0
2016-10-09T06:38:21.055Z,0
2016-10-09T06:39:31.587Z,0
2016-10-09T06:40:42.101Z,0
2016-10-09T06:41:52.570Z,0
2016-10-09T06:43:03.058Z,0
2016-10-09T06:44:13.594Z,0
2016-10-09T06:45:24.230Z,0
2016-10-09T06:46:34.711Z,0
2016-10-09T06:47:45.240Z,0
2016-10-09T06:48:55.731Z,0
2016-10-09T06:50:06.201Z,0
2016-10-09T06:51:16.799Z,0
2016-10-09T06:52:27.353Z,0
2016-10-09T06:53:37.839Z,0
2016-10-09T06:54:48.287Z,0
2016-10-09T06:55:58.738Z,0
2016-10-09T06:57:09.286Z,0
2016-10-09T06:58:19.735Z,0
2016-10-09T06:59:30.176Z,0
2016-10-09T07:00:40.633Z,0
2016-10-09T07:01:51.482Z,0
2016-10-09T07:03:01.928Z,0
2016-10-09T07:04:12.389Z,0
2016-10-09T07:05:22.839Z,0
2016-10-09T07:06:33.305Z,0
2016-10-09T07:07:44.147Z,0
2016-10-09T07:08:54.698Z,0
2016-10-09T07:10:05.152Z,0
2016-10-09T07:11:15.603Z,0
2016-10-09T07:12:26.058Z,0
2016-10-09T07:13:36.519Z,0
2016-10-09T07:14:47.072Z,0
2016-10-09T07:15:57.521Z,0
2016-10-09T07:17:07.980Z,0
2016-10-09T07:18:18.445Z,0
2016-10-09T07:19:28.919Z,0
2016-10-09T07:20:39.497Z,0
2016-10-09T07:21:49.954Z,0
2016-10-09T07:23:00.407Z,0
2016-10-09T07:24:10.863Z,0
2016-10-09T07:25:21.319Z,0
2016-10-09T07:26:31.765Z,0
2016-10-09T07:27:42.243Z,0
2016-10-09T07:28:52.758Z,0
2016-10-09T07:30:03.262Z,0
2016-10-09T07:31:13.750Z,0
2016-10-09T07:32:24.380Z,0
2016-10-09T07:33:34.868Z,0
2016-10-09T07:34:45.409Z,0
2016-10-09T07:35:55.924Z,0
2016-10-09T07:37:06.381Z,0
2016-10-09T07:38:16.965Z,0
2016-10-09T07:39:27.451Z,0
2016-10-09T07:40:37.904Z,0
2016-10-09T07:41:48.382Z,0
2016-10-09T07:42:59.262Z,0
2016-10-09T07:44:09.856Z,0
2016-10-09T07:45:20.359Z,0
2016-10-09T07:46:30.825Z,0
2016-10-09T07:47:41.342Z,0
2016-10-09T07:48:52.318Z,0
2016-10-09T07:50:02.893Z,0
2016-10-09T07:51:13.364Z,0
2016-10-09T07:52:23.865Z,0
2016-10-09T07:53:34.396Z,0
2016-10-09T07:54:44.888Z,0
2016-10-09T07:55:55.444Z,0
2016-10-09T07:57:05.953Z,0
2016-10-09T07:58:16.420Z,0
2016-10-09T07:59:26.899Z,0
2016-10-09T08:00:37.353Z,0
2016-10-09T08:01:47.819Z,0
2016-10-09T08:02:58.269Z,0
2016-10-09T08:04:08.722Z,0
2016-10-09T08:05:19.165Z,0
2016-10-09T08:06:29.641Z,0
2016-10-09T08:07:40.191Z,0
2016-10-09T08:08:50.644Z,0
2016-10-09T08:10:01.113Z,0
2016-10-09T08:11:11.573Z,0
2016-10-09T08:12:22.897Z,0
2016-10-09T08:13:33.460Z,0
2016-10-09T08:14:43.917Z,0
2016-10-09T08:15:54.379Z,0
2016-10-09T08:17:04.830Z,0
2016-10-09T08:18:15.292Z,0
2016-10-09T08:19:25.746Z,0
2016-10-09T08:20:36.188Z,0
2016-10-09T08:21:47.031Z,0
2016-10-09T08:22:57.967Z,0
2016-10-09T08:24:08.833Z,0
2016-10-09T08:25:19.387Z,0
2016-10-09T08:26:29.840Z,0
2016-10-09T08:27:40.296Z,0
2016-10-09T08:28:50.742Z,0
2016-10-09T08:30:01.208Z,0
2016-10-09T08:31:11.764Z,0
2016-10-09T08:32:22.225Z,0
2016-10-09T08:33:32.680Z,5
2016-10-09T08:34:43.128Z,5
2016-10-09T08:35:53.972Z,5
2016-10-09T08:37:04.593Z,5
2016-10-09T08:38:15.068Z,10
2016-10-09T08:39:25.554Z,10
2016-10-09T08:40:36.023Z,15
2016-10-09T08:41:46.524Z,15
2016-10-09T08:42:57.001Z,15
2016-10-09T08:44:07.465Z,20
2016-10-09T08:45:17.952Z,20
2016-10-09T08:46:28.846Z,25
2016-10-09T08:47:39.366Z,25
2016-10-09T08:48:49.964Z,30
2016-10-09T08:50:00.457Z,35
2016-10-09T08:51:11.256Z,35
2016-10-09T08:52:21.731Z,40
2016-10-09T08:53:32.214Z,40
2016-10-09T08:54:43.320Z,45
2016-10-09T08:55:53.848Z,50
2016-10-09T08:57:04.332Z,50
2016-10-09T08:58:14.810Z,55
2016-10-09T08:59:25.339Z,60
2016-10-09T09:00:35.958Z,60
2016-10-09T09:01:46.415Z,65
2016-10-09T09:02:56.968Z,70
2016-10-09T09:04:07.500Z,75
2016-10-09T09:05:18.012Z,75
2016-10-09T09:06:28.544Z,80
2016-10-09T09:07:39.046Z,85
2016-10-09T09:08:49.535Z,90
2016-10-09T09:10:00.046Z,90
2016-10-09T09:11:10.542Z,95
2016-10-09T09:12:21.575Z,100
2016-10-09T09:13:32.601Z,110
2016-10-09T09:14:43.080Z,110
2016-10-09T09:15:53.573Z,115
2016-10-09T09:17:04.109Z,120
2016-10-09T09:18:15.624Z,130
2016-10-09T09:19:26.129Z,130
2016-10-09T09:20:37.008Z,140
2016-10-09T09:21:47.534Z,145
2016-10-09T09:22:58.001Z,145
2016-10-09T09:24:08.629Z,160
2016-10-09T09:25:19.103Z,170
2016-10-09T09:26:29.589Z,190
2016-10-09T09:27:40.094Z,195
2016-10-09T09:28:51.019Z,190
2016-10-09T09:30:01.482Z,195
2016-10-09T09:31:12.012Z,210
2016-10-09T09:32:22.509Z,245
2016-10-09T09:33:33.030Z,255
2016-10-09T09:34:43.507Z,270
2016-10-09T09:35:54.200Z,295
2016-10-09T09:37:04.689Z,305
2016-10-09T09:38:15.202Z,300
2016-10-09T09:39:25.712Z,250
2016-10-09T09:40:36.287Z,245
2016-10-09T09:41:46.862Z,230
2016-10-09T09:42:57.315Z,245
2016-10-09T09:44:07.825Z,245
2016-10-09T09:45:18.355Z,255
2016-10-09T09:46:28.891Z,315
2016-10-09T09:47:39.379Z,375
2016-10-09T09:48:49.926Z,420
2016-10-09T09:50:00.487Z,565
2016-10-09T09:51:11.453Z,705
2016-10-09T09:52:22.035Z,765
2016-10-09T09:53:32.714Z,755
2016-10-09T09:54:43.277Z,810
2016-10-09T09:55:53.820Z,835
2016-10-09T09:57:04.385Z,700
2016-10-09T09:58:14.902Z,845
2016-10-09T09:59:25.515Z,875
2016-10-09T10:00:36.020Z,875
2016-10-09T10:01:46.583Z,925
2016-10-09T10:02:57.132Z,410
2016-10-09T10:04:07.621Z,370
2016-10-09T10:05:19.078Z,920
2016-10-09T10:06:29.590Z,935
2016-10-09T10:07:40.160Z,950
2016-10-09T10:08:50.721Z,955
2016-10-09T10:10:01.272Z,985
2016-10-09T10:11:11.799Z,1035
2016-10-09T10:12:22.363Z,295
2016-10-09T10:13:32.927Z,1020
2016-10-09T10:14:43.405Z,1010
2016-10-09T10:15:53.878Z,1005
2016-10-09T10:17:04.443Z,1080
2016-10-09T10:18:14.919Z,1090
2016-10-09T10:19:25.385Z,1070
2016-10-09T10:20:35.848Z,1060
2016-10-09T10:21:46.310Z,1095
2016-10-09T10:22:56.874Z,1135
2016-10-09T10:24:07.347Z,1200
2016-10-09T10:25:17.800Z,1010
2016-10-09T10:26:28.657Z,1105
2016-10-09T10:27:39.115Z,1100
2016-10-09T10:28:49.681Z,1135
2016-10-09T10:30:00.152Z,1210
2016-10-09T10:31:10.612Z,1215
2016-10-09T10:32:21.079Z,1135
2016-10-09T10:33:31.544Z,1145
2016-10-09T10:34:42.106Z,1115
2016-10-09T10:35:52.582Z,1110
2016-10-09T10:37:03.551Z,1160
2016-10-09T10:38:14.029Z,1185
2016-10-09T10:39:24.490Z,1150
2016-10-09T10:40:35.050Z,1165
2016-10-09T10:41:45.549Z,1205
2016-10-09T10:42:56.017Z,1190
2016-10-09T10:44:06.493Z,1290
2016-10-09T10:45:17.441Z,1255
2016-10-09T10:46:28.013Z,1230
2016-10-09T10:47:38.548Z,1255
2016-10-09T10:48:49.085Z,1100
2016-10-09T10:49:59.613Z,1210
2016-10-09T10:51:10.571Z,1130
2016-10-09T10:52:21.102Z,995
2016-10-09T10:53:31.669Z,930
2016-10-09T10:54:42.215Z,600
2016-10-09T10:55:53.191Z,960
2016-10-09T10:57:04.156Z,920
2016-10-09T10:58:14.905Z,965
2016-10-09T10:59:25.430Z,1030
2016-10-09T11:00:36.011Z,1130
2016-10-09T11:01:46.575Z,765
2016-10-09T11:02:57.131Z,1425
2016-10-09T11:04:07.798Z,1375
2016-10-09T11:05:18.384Z,1460
2016-10-09T11:06:28.935Z,1585
2016-10-09T11:07:39.508Z,1660
2016-10-09T11:08:50.100Z,1605
2016-10-09T11:10:00.639Z,1585
2016-10-09T11:11:11.179Z,1575
2016-10-09T11:12:21.695Z,1550
2016-10-09T11:13:32.278Z,1605
2016-10-09T11:14:42.827Z,1590
2016-10-09T11:15:53.438Z,1525
2016-10-09T11:17:04.863Z,1630
2016-10-09T11:18:15.372Z,1590
2016-10-09T11:19:25.910Z,1635
2016-10-09T11:20:36.462Z,1595
2016-10-09T11:21:47.060Z,1550
2016-10-09T11:22:57.575Z,1645
2016-10-09T11:24:08.077Z,1800
2016-10-09T11:25:18.605Z,1330
2016-10-09T11:26:29.128Z,1555
2016-10-09T11:27:39.748Z,1840
2016-10-09T11:28:50.292Z,1735
2016-10-09T11:30:00.807Z,1620
2016-10-09T11:31:11.277Z,1760
2016-10-09T11:32:21.820Z,1885
2016-10-09T11:33:32.418Z,1820
2016-10-09T11:34:42.944Z,1930
2016-10-09T11:35:53.436Z,870
2016-10-09T11:37:03.934Z,1800
2016-10-09T11:38:14.967Z,1850
2016-10-09T11:39:25.588Z,1595
2016-10-09T11:40:36.129Z,1905
2016-10-09T11:41:46.651Z,1835
2016-10-09T11:42:57.155Z,1840
2016-10-09T11:44:07.684Z,1950
2016-10-09T11:45:18.163Z,1900
2016-10-09T11:46:28.736Z,1915
2016-10-09T11:47:39.225Z,2095
2016-10-09T11:48:49.718Z,2105
2016-10-09T11:50:00.236Z,2020
2016-10-09T11:51:10.837Z,1910
2016-10-09T11:52:21.346Z,2055
2016-10-09T11:53:31.845Z,2165
2016-10-09T11:54:42.365Z,2225
2016-10-09T11:55:52.928Z,1710
2016-10-09T11:57:03.508Z,2230
2016-10-09T11:58:14.423Z,2020
2016-10-09T11:59:24.920Z,1970
2016-10-09T12:00:35.813Z,2060
2016-10-09T12:01:46.292Z,1675
2016-10-09T12:02:57.272Z,1190
2016-10-09T12:04:07.778Z,1175
2016-10-09T12:05:18.287Z,1125
2016-10-09T12:06:28.851Z,1115
2016-10-09T12:07:39.853Z,1105
2016-10-09T12:08:50.370Z,1120
2016-10-09T12:10:00.856Z,2260
2016-10-09T12:11:11.383Z,1925
2016-10-09T12:12:21.895Z,1830
2016-10-09T12:13:32.384Z,1165
2016-10-09T12:14:43.772Z,1290
2016-10-09T12:15:54.265Z,1490
2016-10-09T12:17:04.755Z,1075
2016-10-09T12:18:15.228Z,2425
2016-10-09T12:19:25.718Z,1415
2016-10-09T12:20:36.350Z,1185
2016-10-09T12:21:46.851Z,2595
2016-10-09T12:22:57.381Z,1805
2016-10-09T12:24:07.900Z,1180
2016-10-09T12:25:18.451Z,2560
2016-10-09T12:26:29.056Z,2250
2016-10-09T12:27:39.534Z,2265
2016-10-09T12:28:50.002Z,1820
2016-10-09T12:30:00.475Z,1090
2016-10-09T12:31:10.947Z,1760
2016-10-09T12:32:21.429Z,1280
2016-10-09T12:33:31.920Z,2615
2016-10-09T12:34:42.398Z,2575
2016-10-09T12:35:52.898Z,1205
2016-10-09T12:37:03.387Z,1125
2016-10-09T12:38:13.964Z,2045
2016-10-09T12:39:24.458Z,1300
2016-10-09T12:40:34.928Z,1670
2016-10-09T12:41:45.415Z,2065
2016-10-09T12:42:55.904Z,1665
2016-10-09T12:44:06.478Z,1835
2016-10-09T12:45:16.955Z,2580
2016-10-09T12:46:27.431Z,1030
2016-10-09T12:47:37.902Z,1100
2016-10-09T12:48:48.367Z,1395
2016-10-09T12:49:58.939Z,1925
2016-10-09T12:51:09.415Z,2350
2016-10-09T12:52:19.892Z,2090
2016-10-09T12:53:30.370Z,2705
2016-10-09T12:54:40.861Z,2705
2016-10-09T12:55:51.713Z,2650
2016-10-09T12:57:02.186Z,2285
2016-10-09T12:58:12.682Z,2000
2016-10-09T12:59:23.158Z,2675
2016-10-09T13:00:33.704Z,2530
2016-10-09T13:01:44.328Z,2760
2016-10-09T13:02:54.858Z,2195
2016-10-09T13:04:05.364Z,2840
2016-10-09T13:05:15.878Z,1500
2016-10-09T13:06:26.433Z,1310
2016-10-09T13:07:37.070Z,2910
2016-10-09T13:08:47.646Z,1585
2016-10-09T13:09:58.177Z,1225
2016-10-09T13:11:08.728Z,2260
2016-10-09T13:12:19.200Z,1595
2016-10-09T13:13:29.826Z,1500
2016-10-09T13:14:40.325Z,2270
2016-10-09T13:15:50.820Z,2305
2016-10-09T13:17:01.354Z,2530
2016-10-09T13:18:11.923Z,2225
2016-10-09T13:19:22.436Z,3015
2016-10-09T13:20:33.014Z,2435
2016-10-09T13:21:43.534Z,1840
2016-10-09T13:22:54.066Z,2850
2016-10-09T13:24:04.562Z,2815
2016-10-09T13:25:15.243Z,1920
2016-10-09T13:26:25.733Z,2660
2016-10-09T13:27:36.259Z,1870
2016-10-09T13:28:46.769Z,1900
2016-10-09T13:29:57.667Z,2185
2016-10-09T13:31:08.265Z,2455
2016-10-09T13:32:19.536Z,2790
2016-10-09T13:33:30.038Z,1090
2016-10-09T13:34:40.585Z,1365
2016-10-09T13:35:51.072Z,2810
2016-10-09T13:37:01.829Z,2800
2016-10-09T13:38:12.384Z,1565
2016-10-09T13:39:22.896Z,2530
2016-10-09T13:40:33.397Z,1510
2016-10-09T13:41:43.948Z,995
2016-10-09T13:42:54.473Z,925
2016-10-09T13:44:04.977Z,1315
2016-10-09T13:45:15.907Z,2920
2016-10-09T13:46:26.808Z,3070
2016-10-09T13:47:37.282Z,2985
2016-10-09T13:48:47.890Z,2925
2016-10-09T13:49:58.408Z,1130
2016-10-09T13:51:08.995Z,1065
2016-10-09T13:52:19.546Z,2435
2016-10-09T13:53:30.038Z,1030
2016-10-09T13:54:40.636Z,1295
2016-10-09T13:55:51.139Z,1945
2016-10-09T13:57:02.017Z,3150
2016-10-09T13:58:12.499Z,2005
2016-10-09T13:59:22.991Z,1565
2016-10-09T14:00:34.073Z,2740
2016-10-09T14:01:44.584Z,2125
2016-10-09T14:02:55.102Z,1555
2016-10-09T14:04:05.600Z,1705
2016-10-09T14:05:16.092Z,2115
2016-10-09T14:06:27.114Z,1590
2016-10-09T14:07:37.670Z,1575
2016-10-09T14:08:48.189Z,1435
2016-10-09T14:09:58.716Z,2180
2016-10-09T14:11:09.214Z,1885
2016-10-09T14:12:19.754Z,1345
2016-10-09T14:13:30.668Z,2700
2016-10-09T14:14:41.165Z,1185
2016-10-09T14:15:51.635Z,1115
2016-10-09T14:17:02.104Z,1025
2016-10-09T14:18:12.692Z,1170
2016-10-09T14:19:23.289Z,2610
2016-10-09T14:20:33.769Z,1355
2016-10-09T14:21:44.291Z,2725
2016-10-09T14:22:54.797Z,1295
2016-10-09T14:24:05.396Z,2095
2016-10-09T14:25:15.920Z,1625
2016-10-09T14:26:26.389Z,1425
2016-10-09T14:27:37.233Z,2675
2016-10-09T14:28:47.720Z,2715
2016-10-09T14:29:58.322Z,2355
2016-10-09T14:31:08.881Z,1780
2016-10-09T14:32:19.415Z,2250
2016-10-09T14:33:29.898Z,2645
2016-10-09T14:34:40.366Z,2940
2016-10-09T14:35:50.885Z,2915
2016-10-09T14:37:01.425Z,2910
2016-10-09T14:38:11.943Z,2835
2016-10-09T14:39:22.436Z,2425
2016-10-09T14:40:33.387Z,2550
2016-10-09T14:41:44.116Z,2470
2016-10-09T14:42:55.079Z,1000
2016-10-09T14:44:05.636Z,2120
2016-10-09T14:45:16.577Z,2630
2016-10-09T14:46:27.102Z,1565
2016-10-09T14:47:37.739Z,990
2016-10-09T14:48:48.607Z,1475
2016-10-09T14:49:59.154Z,1165
2016-10-09T14:51:09.654Z,1425
2016-10-09T14:52:20.205Z,2865
2016-10-09T14:53:30.803Z,1035
2016-10-09T14:54:41.273Z,955
2016-10-09T14:55:51.786Z,795
2016-10-09T14:57:02.269Z,805
2016-10-09T14:58:12.803Z,915
2016-10-09T14:59:23.924Z,895
2016-10-09T15:00:34.468Z,790
2016-10-09T15:01:45.008Z,805
2016-10-09T15:02:55.917Z,1205
2016-10-09T15:04:06.413Z,800
2016-10-09T15:05:17.394Z,1060
2016-10-09T15:06:27.948Z,1875
2016-10-09T15:07:39.014Z,1115
2016-10-09T15:08:49.547Z,1845
2016-10-09T15:10:00.053Z,1175
2016-10-09T15:11:10.669Z,995
2016-10-09T15:12:21.198Z,820
2016-10-09T15:13:31.717Z,1490
2016-10-09T15:14:42.262Z,2160
2016-10-09T15:15:52.777Z,1025
2016-10-09T15:17:03.260Z,1485
2016-10-09T15:18:13.790Z,2660
2016-10-09T15:19:24.289Z,2365
2016-10-09T15:20:34.765Z,2565
2016-10-09T15:21:45.260Z,2525
2016-10-09T15:22:56.370Z,1930
2016-10-09T15:24:06.859Z,1085
2016-10-09T15:25:17.397Z,2590
2016-10-09T15:26:27.964Z,2325
2016-10-09T15:27:38.484Z,2200
2016-10-09T15:28:49.088Z,2395
2016-10-09T15:29:59.582Z,2545
2016-10-09T15:31:10.077Z,2465
2016-10-09T15:32:20.570Z,1010
2016-10-09T15:33:31.116Z,995
2016-10-09T15:34:41.708Z,1350
2016-10-09T15:35:52.279Z,2355
2016-10-09T15:37:02.804Z,2385
2016-10-09T15:38:13.781Z,2280
2016-10-09T15:39:24.259Z,1115
2016-10-09T15:40:34.783Z,890
2016-10-09T15:41:45.304Z,970
2016-10-09T15:42:55.795Z,2160
2016-10-09T15:44:06.353Z,2220
2016-10-09T15:45:16.871Z,2290
2016-10-09T15:46:27.521Z,2205
2016-10-09T15:47:38.021Z,2015
2016-10-09T15:48:48.515Z,1450
2016-10-09T15:49:59.072Z,2185
2016-10-09T15:51:09.577Z,2145
2016-10-09T15:52:20.168Z,2155
2016-10-09T15:53:30.677Z,1815
2016-10-09T15:54:41.170Z,2060
2016-10-09T15:55:51.651Z,1875
2016-10-09T15:57:02.168Z,2190
2016-10-09T15:58:12.764Z,1630
2016-10-09T15:59:23.314Z,780
2016-10-09T16:00:33.809Z,780
2016-10-09T16:01:44.337Z,785
2016-10-09T16:02:54.890Z,1025
2016-10-09T16:04:05.916Z,875
2016-10-09T16:05:16.421Z,790
2016-10-09T16:06:27.310Z,1830
2016-10-09T16:07:37.806Z,2130
2016-10-09T16:08:48.349Z,2060
2016-10-09T16:09:58.952Z,2095
2016-10-09T16:11:09.482Z,2125
2016-10-09T16:12:20.024Z,2035
2016-10-09T16:13:30.533Z,1625
2016-10-09T16:14:41.015Z,2030
2016-10-09T16:15:51.652Z,1910
2016-10-09T16:17:02.136Z,1955
2016-10-09T16:18:12.638Z,1650
2016-10-09T16:19:23.126Z,1970
2016-10-09T16:20:34.088Z,2040
2016-10-09T16:21:44.693Z,1755
2016-10-09T16:22:55.259Z,1920
2016-10-09T16:24:05.813Z,2010
2016-10-09T16:25:16.312Z,2120
2016-10-09T16:26:26.868Z,2030
2016-10-09T16:27:37.456Z,1740
2016-10-09T16:28:48.385Z,1985
2016-10-09T16:29:59.353Z,2030
2016-10-09T16:31:09.879Z,2140
2016-10-09T16:32:20.461Z,870
2016-10-09T16:33:31.147Z,1145
2016-10-09T16:34:41.709Z,1035
2016-10-09T16:35:52.285Z,1790
2016-10-09T16:37:02.818Z,720
2016-10-09T16:38:13.396Z,740